sensor_id;sensor_type;location;lat;lon;timestamp;temperature;humidity
5899;DHT22;2975;50.956;6.962;2023-04-25T00:02:06;7.40;99.90
5899;DHT22;2975;50.956;6.962;2023-04-25T00:04:32;7.50;99.90
5899;DHT22;2975;50.956;6.962;2023-04-25T00:06:59;7.50;99.90
5899;DHT22;2975;50.956;6.962;2023-04-25T00:09:27;7.50;99.90
5899;DHT22;2975;50.956;6.962;2023-04-25T00:11:53;7.50;99.90
5899;DHT22;2975;50.956;6.962;2023-04-25T00:14:18;7.50;99.90
5899;DHT22;2975;50.956;6.962;2023-04-25T00:16:44;7.50;99.90
5899;DHT22;2975;50.956;6.962;2023-04-25T00:19:10;7.50;99.90
5899;DHT22;2975;50.956;6.962;2023-04-25T00:21:36;7.40;99.90
5899;DHT22;2975;50.956;6.962;2023-04-25T00:24:03;7.40;99.90
5899;DHT22;2975;50.956;6.962;2023-04-25T00:26:29;7.40;99.90
5899;DHT22;2975;50.956;6.962;2023-04-25T00:28:54;7.30;99.90
5899;DHT22;2975;50.956;6.962;2023-04-25T00:31:21;7.30;99.90
5899;DHT22;2975;50.956;6.962;2023-04-25T00:33:47;7.30;99.90
5899;DHT22;2975;50.956;6.962;2023-04-25T00:36:12;7.20;99.90
5899;DHT22;2975;50.956;6.962;2023-04-25T00:38:38;7.20;99.90
5899;DHT22;2975;50.956;6.962;2023-04-25T00:41:06;7.20;99.90
5899;DHT22;2975;50.956;6.962;2023-04-25T00:43:32;7.10;99.90
5899;DHT22;2975;50.956;6.962;2023-04-25T00:46:00;6.90;99.90
5899;DHT22;2975;50.956;6.962;2023-04-25T00:48:26;6.80;99.90
5899;DHT22;2975;50.956;6.962;2023-04-25T00:50:54;6.70;99.90
5899;DHT22;2975;50.956;6.962;2023-04-25T00:53:21;6.60;99.90
5899;DHT22;2975;50.956;6.962;2023-04-25T00:55:47;6.60;99.90
5899;DHT22;2975;50.956;6.962;2023-04-25T00:58:13;6.50;99.90
5899;DHT22;2975;50.956;6.962;2023-04-25T01:00:40;6.40;99.90
5899;DHT22;2975;50.956;6.962;2023-04-25T01:03:06;6.40;99.90
5899;DHT22;2975;50.956;6.962;2023-04-25T01:05:32;6.40;99.90
5899;DHT22;2975;50.956;6.962;2023-04-25T01:07:58;6.30;99.90
5899;DHT22;2975;50.956;6.962;2023-04-25T01:10:24;6.30;99.90
5899;DHT22;2975;50.956;6.962;2023-04-25T01:12:49;6.30;99.90
5899;DHT22;2975;50.956;6.962;2023-04-25T01:15:15;6.40;99.90
5899;DHT22;2975;50.956;6.962;2023-04-25T01:17:41;6.30;99.90
5899;DHT22;2975;50.956;6.962;2023-04-25T01:20:08;6.30;99.90
5899;DHT22;2975;50.956;6.962;2023-04-25T01:22:34;6.30;99.90
5899;DHT22;2975;50.956;6.962;2023-04-25T01:25:00;6.30;99.90
5899;DHT22;2975;50.956;6.962;2023-04-25T01:27:26;6.20;99.90
5899;DHT22;2975;50.956;6.962;2023-04-25T01:29:54;6.20;99.90
5899;DHT22;2975;50.956;6.962;2023-04-25T01:32:22;6.20;99.90
5899;DHT22;2975;50.956;6.962;2023-04-25T01:34:48;6.30;99.90
5899;DHT22;2975;50.956;6.962;2023-04-25T01:37:13;6.40;99.90
5899;DHT22;2975;50.956;6.962;2023-04-25T01:39:39;6.40;99.90
5899;DHT22;2975;50.956;6.962;2023-04-25T01:42:04;6.40;99.90
5899;DHT22;2975;50.956;6.962;2023-04-25T01:44:30;6.40;99.90
5899;DHT22;2975;50.956;6.962;2023-04-25T01:46:56;6.40;99.90
5899;DHT22;2975;50.956;6.962;2023-04-25T01:49:22;6.30;99.90
5899;DHT22;2975;50.956;6.962;2023-04-25T01:51:47;6.20;99.90
5899;DHT22;2975;50.956;6.962;2023-04-25T01:54:13;6.10;99.90
5899;DHT22;2975;50.956;6.962;2023-04-25T01:56:39;6.10;99.90
5899;DHT22;2975;50.956;6.962;2023-04-25T01:59:05;6.00;99.90
5899;DHT22;2975;50.956;6.962;2023-04-25T02:01:31;6.00;99.90
5899;DHT22;2975;50.956;6.962;2023-04-25T02:03:57;6.00;99.90
5899;DHT22;2975;50.956;6.962;2023-04-25T02:06:22;5.90;99.90
5899;DHT22;2975;50.956;6.962;2023-04-25T02:08:48;5.90;99.90
5899;DHT22;2975;50.956;6.962;2023-04-25T02:11:14;5.80;99.90
5899;DHT22;2975;50.956;6.962;2023-04-25T02:13:39;5.80;99.90
5899;DHT22;2975;50.956;6.962;2023-04-25T02:16:05;5.70;99.90
5899;DHT22;2975;50.956;6.962;2023-04-25T02:20:59;5.70;99.90
5899;DHT22;2975;50.956;6.962;2023-04-25T02:23:25;5.70;99.90
5899;DHT22;2975;50.956;6.962;2023-04-25T02:25:50;5.80;99.90
5899;DHT22;2975;50.956;6.962;2023-04-25T02:28:17;5.90;99.90
5899;DHT22;2975;50.956;6.962;2023-04-25T02:30:42;6.00;99.90
5899;DHT22;2975;50.956;6.962;2023-04-25T02:33:08;6.00;99.90
5899;DHT22;2975;50.956;6.962;2023-04-25T02:35:34;6.10;99.90
5899;DHT22;2975;50.956;6.962;2023-04-25T02:37:59;6.20;99.90
5899;DHT22;2975;50.956;6.962;2023-04-25T02:40:25;6.30;99.90
5899;DHT22;2975;50.956;6.962;2023-04-25T02:42:50;6.30;99.90
5899;DHT22;2975;50.956;6.962;2023-04-25T02:45:16;6.30;99.90
5899;DHT22;2975;50.956;6.962;2023-04-25T02:47:42;6.40;99.90
5899;DHT22;2975;50.956;6.962;2023-04-25T02:50:08;6.50;99.90
5899;DHT22;2975;50.956;6.962;2023-04-25T02:52:34;6.50;99.90
5899;DHT22;2975;50.956;6.962;2023-04-25T02:54:59;6.50;99.90
5899;DHT22;2975;50.956;6.962;2023-04-25T02:57:25;6.60;99.90
5899;DHT22;2975;50.956;6.962;2023-04-25T02:59:50;6.60;99.90
5899;DHT22;2975;50.956;6.962;2023-04-25T03:02:16;6.60;99.90
5899;DHT22;2975;50.956;6.962;2023-04-25T03:04:42;6.60;99.90
5899;DHT22;2975;50.956;6.962;2023-04-25T03:07:08;6.60;99.90
5899;DHT22;2975;50.956;6.962;2023-04-25T03:09:33;6.60;99.90
5899;DHT22;2975;50.956;6.962;2023-04-25T03:12:00;6.70;99.90
5899;DHT22;2975;50.956;6.962;2023-04-25T03:14:26;6.60;99.90
5899;DHT22;2975;50.956;6.962;2023-04-25T03:16:52;6.60;99.90
5899;DHT22;2975;50.956;6.962;2023-04-25T03:19:18;6.60;99.90
5899;DHT22;2975;50.956;6.962;2023-04-25T03:21:44;6.60;99.90
5899;DHT22;2975;50.956;6.962;2023-04-25T03:24:10;6.60;99.90
5899;DHT22;2975;50.956;6.962;2023-04-25T03:26:36;6.60;99.90
5899;DHT22;2975;50.956;6.962;2023-04-25T03:29:02;6.70;99.90
5899;DHT22;2975;50.956;6.962;2023-04-25T03:31:28;6.70;99.90
5899;DHT22;2975;50.956;6.962;2023-04-25T03:33:53;6.70;99.90
5899;DHT22;2975;50.956;6.962;2023-04-25T03:36:19;6.70;99.90
5899;DHT22;2975;50.956;6.962;2023-04-25T03:38:44;6.70;99.90
5899;DHT22;2975;50.956;6.962;2023-04-25T03:41:10;6.70;99.90
5899;DHT22;2975;50.956;6.962;2023-04-25T03:43:36;6.70;99.90
5899;DHT22;2975;50.956;6.962;2023-04-25T03:46:01;6.80;99.90
5899;DHT22;2975;50.956;6.962;2023-04-25T03:48:27;6.80;99.90
5899;DHT22;2975;50.956;6.962;2023-04-25T03:50:53;6.80;99.90
5899;DHT22;2975;50.956;6.962;2023-04-25T03:53:19;6.80;99.90
5899;DHT22;2975;50.956;6.962;2023-04-25T03:55:45;6.80;99.90
5899;DHT22;2975;50.956;6.962;2023-04-25T03:58:10;6.80;99.90
5899;DHT22;2975;50.956;6.962;2023-04-25T04:00:36;6.70;99.90
5899;DHT22;2975;50.956;6.962;2023-04-25T04:03:02;6.80;99.90
5899;DHT22;2975;50.956;6.962;2023-04-25T04:05:28;6.70;99.90
5899;DHT22;2975;50.956;6.962;2023-04-25T04:07:54;6.80;99.90
5899;DHT22;2975;50.956;6.962;2023-04-25T04:10:20;6.80;99.90
5899;DHT22;2975;50.956;6.962;2023-04-25T04:12:46;6.80;99.90
5899;DHT22;2975;50.956;6.962;2023-04-25T04:15:11;6.80;99.90
5899;DHT22;2975;50.956;6.962;2023-04-25T04:17:37;6.80;99.90
5899;DHT22;2975;50.956;6.962;2023-04-25T04:20:03;6.90;99.90
5899;DHT22;2975;50.956;6.962;2023-04-25T04:22:29;6.90;99.90
5899;DHT22;2975;50.956;6.962;2023-04-25T04:24:55;6.90;99.90
5899;DHT22;2975;50.956;6.962;2023-04-25T04:27:22;7.00;99.90
5899;DHT22;2975;50.956;6.962;2023-04-25T04:29:49;6.90;99.90
5899;DHT22;2975;50.956;6.962;2023-04-25T04:32:15;6.90;99.90
5899;DHT22;2975;50.956;6.962;2023-04-25T04:34:41;6.90;99.90
5899;DHT22;2975;50.956;6.962;2023-04-25T04:37:07;7.00;99.90
5899;DHT22;2975;50.956;6.962;2023-04-25T04:39:33;7.10;99.90
5899;DHT22;2975;50.956;6.962;2023-04-25T04:41:59;7.10;99.90
5899;DHT22;2975;50.956;6.962;2023-04-25T04:44:27;7.10;99.90
5899;DHT22;2975;50.956;6.962;2023-04-25T04:46:54;7.10;99.90
5899;DHT22;2975;50.956;6.962;2023-04-25T04:49:20;7.10;99.90
5899;DHT22;2975;50.956;6.962;2023-04-25T04:51:46;7.20;99.90
5899;DHT22;2975;50.956;6.962;2023-04-25T04:54:12;7.20;99.90
5899;DHT22;2975;50.956;6.962;2023-04-25T04:56:38;7.20;99.90
5899;DHT22;2975;50.956;6.962;2023-04-25T04:59:03;7.20;99.90
5899;DHT22;2975;50.956;6.962;2023-04-25T05:01:29;7.30;99.90
5899;DHT22;2975;50.956;6.962;2023-04-25T05:03:57;7.30;99.90
5899;DHT22;2975;50.956;6.962;2023-04-25T05:06:27;7.40;99.90
5899;DHT22;2975;50.956;6.962;2023-04-25T05:08:54;7.50;99.90
5899;DHT22;2975;50.956;6.962;2023-04-25T05:11:20;7.70;99.90
5899;DHT22;2975;50.956;6.962;2023-04-25T05:13:46;7.70;99.90
5899;DHT22;2975;50.956;6.962;2023-04-25T05:16:12;7.70;99.90
5899;DHT22;2975;50.956;6.962;2023-04-25T05:18:39;7.80;99.90
5899;DHT22;2975;50.956;6.962;2023-04-25T05:21:05;7.80;99.90
5899;DHT22;2975;50.956;6.962;2023-04-25T05:23:31;7.90;99.90
5899;DHT22;2975;50.956;6.962;2023-04-25T05:25:57;8.00;99.90
5899;DHT22;2975;50.956;6.962;2023-04-25T05:28:23;8.10;99.90
5899;DHT22;2975;50.956;6.962;2023-04-25T05:30:48;8.00;99.90
5899;DHT22;2975;50.956;6.962;2023-04-25T05:33:14;8.20;99.90
5899;DHT22;2975;50.956;6.962;2023-04-25T05:35:40;8.20;99.90
5899;DHT22;2975;50.956;6.962;2023-04-25T05:38:06;8.30;99.90
5899;DHT22;2975;50.956;6.962;2023-04-25T05:40:31;8.30;99.90
5899;DHT22;2975;50.956;6.962;2023-04-25T05:42:57;8.30;99.90
5899;DHT22;2975;50.956;6.962;2023-04-25T05:45:23;8.60;99.90
5899;DHT22;2975;50.956;6.962;2023-04-25T05:47:48;9.00;99.90
5899;DHT22;2975;50.956;6.962;2023-04-25T05:50:14;9.20;99.90
5899;DHT22;2975;50.956;6.962;2023-04-25T05:52:39;9.60;99.90
5899;DHT22;2975;50.956;6.962;2023-04-25T05:55:05;10.00;99.90
5899;DHT22;2975;50.956;6.962;2023-04-25T05:57:31;10.40;99.90
5899;DHT22;2975;50.956;6.962;2023-04-25T05:59:57;10.90;99.90
5899;DHT22;2975;50.956;6.962;2023-04-25T06:02:23;11.80;99.40
5899;DHT22;2975;50.956;6.962;2023-04-25T06:04:51;12.20;98.20
5899;DHT22;2975;50.956;6.962;2023-04-25T06:07:18;11.90;97.30
5899;DHT22;2975;50.956;6.962;2023-04-25T06:09:44;12.30;97.10
5899;DHT22;2975;50.956;6.962;2023-04-25T06:12:09;12.40;96.60
5899;DHT22;2975;50.956;6.962;2023-04-25T06:14:35;13.00;96.50
5899;DHT22;2975;50.956;6.962;2023-04-25T06:17:01;13.00;95.30
5899;DHT22;2975;50.956;6.962;2023-04-25T06:19:32;12.40;95.80
5899;DHT22;2975;50.956;6.962;2023-04-25T06:21:58;12.00;95.90
5899;DHT22;2975;50.956;6.962;2023-04-25T06:24:24;11.50;97.60
5899;DHT22;2975;50.956;6.962;2023-04-25T06:26:49;11.40;97.50
5899;DHT22;2975;50.956;6.962;2023-04-25T06:29:15;11.40;98.70
5899;DHT22;2975;50.956;6.962;2023-04-25T06:31:40;11.60;98.50
5899;DHT22;2975;50.956;6.962;2023-04-25T06:34:06;11.10;97.00
5899;DHT22;2975;50.956;6.962;2023-04-25T06:36:32;10.70;97.80
5899;DHT22;2975;50.956;6.962;2023-04-25T06:38:57;10.80;98.00
5899;DHT22;2975;50.956;6.962;2023-04-25T06:41:23;10.70;98.10
5899;DHT22;2975;50.956;6.962;2023-04-25T06:43:48;10.50;98.20
5899;DHT22;2975;50.956;6.962;2023-04-25T06:46:14;10.30;98.70
5899;DHT22;2975;50.956;6.962;2023-04-25T06:48:39;10.20;99.00
5899;DHT22;2975;50.956;6.962;2023-04-25T06:51:05;10.10;99.00
5899;DHT22;2975;50.956;6.962;2023-04-25T06:53:30;10.60;97.80
5899;DHT22;2975;50.956;6.962;2023-04-25T06:55:56;10.90;96.30
5899;DHT22;2975;50.956;6.962;2023-04-25T06:58:22;10.80;96.80
5899;DHT22;2975;50.956;6.962;2023-04-25T07:00:47;11.10;97.00
5899;DHT22;2975;50.956;6.962;2023-04-25T07:03:13;11.70;96.60
5899;DHT22;2975;50.956;6.962;2023-04-25T07:05:39;11.60;95.90
5899;DHT22;2975;50.956;6.962;2023-04-25T07:08:04;11.40;95.60
5899;DHT22;2975;50.956;6.962;2023-04-25T07:10:30;11.00;96.00
5899;DHT22;2975;50.956;6.962;2023-04-25T07:12:55;10.70;96.60
5899;DHT22;2975;50.956;6.962;2023-04-25T07:15:21;10.60;97.00
5899;DHT22;2975;50.956;6.962;2023-04-25T07:17:47;10.50;97.00
5899;DHT22;2975;50.956;6.962;2023-04-25T07:20:12;10.70;97.10
5899;DHT22;2975;50.956;6.962;2023-04-25T07:22:38;10.30;97.00
5899;DHT22;2975;50.956;6.962;2023-04-25T07:25:04;10.30;97.30
5899;DHT22;2975;50.956;6.962;2023-04-25T07:27:30;10.50;97.20
5899;DHT22;2975;50.956;6.962;2023-04-25T07:29:56;10.40;97.60
5899;DHT22;2975;50.956;6.962;2023-04-25T07:32:22;10.40;97.70
5899;DHT22;2975;50.956;6.962;2023-04-25T07:34:48;10.30;97.10
5899;DHT22;2975;50.956;6.962;2023-04-25T07:37:14;10.10;97.30
5899;DHT22;2975;50.956;6.962;2023-04-25T07:39:40;10.10;97.60
5899;DHT22;2975;50.956;6.962;2023-04-25T07:42:06;10.30;97.50
5899;DHT22;2975;50.956;6.962;2023-04-25T07:44:34;10.30;97.40
5899;DHT22;2975;50.956;6.962;2023-04-25T07:47:07;10.40;97.00
5899;DHT22;2975;50.956;6.962;2023-04-25T07:49:36;10.90;95.80
5899;DHT22;2975;50.956;6.962;2023-04-25T07:52:05;10.60;95.50
5899;DHT22;2975;50.956;6.962;2023-04-25T07:54:31;10.60;96.10
5899;DHT22;2975;50.956;6.962;2023-04-25T07:56:57;10.70;95.00
5899;DHT22;2975;50.956;6.962;2023-04-25T07:59:23;10.60;95.20
5899;DHT22;2975;50.956;6.962;2023-04-25T08:01:49;11.10;95.50
5899;DHT22;2975;50.956;6.962;2023-04-25T08:04:15;11.40;94.90
5899;DHT22;2975;50.956;6.962;2023-04-25T08:06:40;11.90;93.90
5899;DHT22;2975;50.956;6.962;2023-04-25T08:09:06;12.30;92.90
5899;DHT22;2975;50.956;6.962;2023-04-25T08:11:33;11.70;93.20
5899;DHT22;2975;50.956;6.962;2023-04-25T08:13:59;11.40;93.30
5899;DHT22;2975;50.956;6.962;2023-04-25T08:16:25;11.20;94.40
5899;DHT22;2975;50.956;6.962;2023-04-25T08:18:51;11.20;93.40
5899;DHT22;2975;50.956;6.962;2023-04-25T08:21:16;10.90;94.00
5899;DHT22;2975;50.956;6.962;2023-04-25T08:23:42;10.70;94.20
5899;DHT22;2975;50.956;6.962;2023-04-25T08:26:07;10.70;94.70
5899;DHT22;2975;50.956;6.962;2023-04-25T08:28:34;10.50;94.30
5899;DHT22;2975;50.956;6.962;2023-04-25T08:31:00;10.40;94.70
5899;DHT22;2975;50.956;6.962;2023-04-25T08:33:25;10.50;94.70
5899;DHT22;2975;50.956;6.962;2023-04-25T08:35:51;10.70;93.90
5899;DHT22;2975;50.956;6.962;2023-04-25T08:38:17;10.70;92.10
5899;DHT22;2975;50.956;6.962;2023-04-25T08:40:44;10.70;92.70
5899;DHT22;2975;50.956;6.962;2023-04-25T08:43:12;10.60;93.00
5899;DHT22;2975;50.956;6.962;2023-04-25T08:45:42;10.50;92.70
5899;DHT22;2975;50.956;6.962;2023-04-25T08:48:12;10.30;93.40
5899;DHT22;2975;50.956;6.962;2023-04-25T08:50:51;10.20;93.70
5899;DHT22;2975;50.956;6.962;2023-04-25T08:53:22;10.20;94.70
5899;DHT22;2975;50.956;6.962;2023-04-25T08:55:50;10.10;94.60
5899;DHT22;2975;50.956;6.962;2023-04-25T08:58:18;10.20;94.00
5899;DHT22;2975;50.956;6.962;2023-04-25T09:00:45;10.30;93.80
5899;DHT22;2975;50.956;6.962;2023-04-25T09:03:11;10.20;93.80
5899;DHT22;2975;50.956;6.962;2023-04-25T09:05:36;10.40;93.70
5899;DHT22;2975;50.956;6.962;2023-04-25T09:08:02;10.40;93.10
5899;DHT22;2975;50.956;6.962;2023-04-25T09:10:28;10.20;93.30
5899;DHT22;2975;50.956;6.962;2023-04-25T09:13:07;10.20;93.60
5899;DHT22;2975;50.956;6.962;2023-04-25T09:15:52;10.30;93.90
5899;DHT22;2975;50.956;6.962;2023-04-25T09:18:32;10.50;92.40
5899;DHT22;2975;50.956;6.962;2023-04-25T09:21:11;10.60;92.40
5899;DHT22;2975;50.956;6.962;2023-04-25T09:23:46;11.00;91.40
5899;DHT22;2975;50.956;6.962;2023-04-25T09:26:19;11.20;90.90
5899;DHT22;2975;50.956;6.962;2023-04-25T09:28:45;11.20;89.70
5899;DHT22;2975;50.956;6.962;2023-04-25T09:31:24;11.40;90.40
5899;DHT22;2975;50.956;6.962;2023-04-25T09:33:50;12.10;87.40
5899;DHT22;2975;50.956;6.962;2023-04-25T09:36:26;12.10;84.80
5899;DHT22;2975;50.956;6.962;2023-04-25T09:38:52;12.40;84.60
5899;DHT22;2975;50.956;6.962;2023-04-25T09:41:23;12.10;83.00
5899;DHT22;2975;50.956;6.962;2023-04-25T09:43:49;11.60;83.40
5899;DHT22;2975;50.956;6.962;2023-04-25T09:46:16;11.40;84.40
5899;DHT22;2975;50.956;6.962;2023-04-25T09:48:51;11.10;85.40
5899;DHT22;2975;50.956;6.962;2023-04-25T09:51:19;11.10;86.50
5899;DHT22;2975;50.956;6.962;2023-04-25T09:53:46;10.90;87.00
5899;DHT22;2975;50.956;6.962;2023-04-25T09:56:14;11.00;87.70
5899;DHT22;2975;50.956;6.962;2023-04-25T09:58:41;11.20;89.00
5899;DHT22;2975;50.956;6.962;2023-04-25T10:01:08;11.40;90.10
5899;DHT22;2975;50.956;6.962;2023-04-25T10:03:37;11.50;87.80
5899;DHT22;2975;50.956;6.962;2023-04-25T10:06:05;11.30;88.40
5899;DHT22;2975;50.956;6.962;2023-04-25T10:08:34;11.30;88.10
5899;DHT22;2975;50.956;6.962;2023-04-25T10:11:01;11.10;88.20
5899;DHT22;2975;50.956;6.962;2023-04-25T10:13:32;10.90;89.10
5899;DHT22;2975;50.956;6.962;2023-04-25T10:15:59;10.70;88.30
5899;DHT22;2975;50.956;6.962;2023-04-25T10:18:25;10.50;88.80
5899;DHT22;2975;50.956;6.962;2023-04-25T10:21:00;10.60;88.40
5899;DHT22;2975;50.956;6.962;2023-04-25T10:23:26;10.80;89.70
5899;DHT22;2975;50.956;6.962;2023-04-25T10:25:53;11.10;88.70
5899;DHT22;2975;50.956;6.962;2023-04-25T10:28:20;11.40;86.40
5899;DHT22;2975;50.956;6.962;2023-04-25T10:31:02;11.80;84.60
5899;DHT22;2975;50.956;6.962;2023-04-25T10:33:36;11.60;82.60
5899;DHT22;2975;50.956;6.962;2023-04-25T10:36:30;11.30;84.10
5899;DHT22;2975;50.956;6.962;2023-04-25T10:39:05;11.60;85.00
5899;DHT22;2975;50.956;6.962;2023-04-25T10:41:45;11.70;81.90
5899;DHT22;2975;50.956;6.962;2023-04-25T10:44:13;12.30;81.20
5899;DHT22;2975;50.956;6.962;2023-04-25T10:46:39;12.00;80.00
5899;DHT22;2975;50.956;6.962;2023-04-25T10:49:08;11.70;80.10
5899;DHT22;2975;50.956;6.962;2023-04-25T10:51:36;11.50;81.10
5899;DHT22;2975;50.956;6.962;2023-04-25T10:54:07;11.70;81.30
5899;DHT22;2975;50.956;6.962;2023-04-25T10:56:41;11.40;81.40
5899;DHT22;2975;50.956;6.962;2023-04-25T10:59:14;11.20;81.90
5899;DHT22;2975;50.956;6.962;2023-04-25T11:01:40;10.90;83.60
5899;DHT22;2975;50.956;6.962;2023-04-25T11:04:06;10.70;84.40
5899;DHT22;2975;50.956;6.962;2023-04-25T11:09:38;11.20;85.80
5899;DHT22;2975;50.956;6.962;2023-04-25T11:12:04;11.30;85.20
5899;DHT22;2975;50.956;6.962;2023-04-25T11:14:30;11.60;86.30
5899;DHT22;2975;50.956;6.962;2023-04-25T11:16:57;11.90;83.40
5899;DHT22;2975;50.956;6.962;2023-04-25T11:19:24;12.00;82.30
5899;DHT22;2975;50.956;6.962;2023-04-25T11:21:50;12.10;81.60
5899;DHT22;2975;50.956;6.962;2023-04-25T11:24:16;12.20;80.90
5899;DHT22;2975;50.956;6.962;2023-04-25T11:26:43;12.20;79.30
5899;DHT22;2975;50.956;6.962;2023-04-25T11:29:11;12.40;79.00
5899;DHT22;2975;50.956;6.962;2023-04-25T11:31:37;12.40;78.00
5899;DHT22;2975;50.956;6.962;2023-04-25T11:34:03;12.10;79.60
5899;DHT22;2975;50.956;6.962;2023-04-25T11:36:28;12.20;79.50
5899;DHT22;2975;50.956;6.962;2023-04-25T11:38:54;12.30;79.50
5899;DHT22;2975;50.956;6.962;2023-04-25T11:41:20;12.20;79.80
5899;DHT22;2975;50.956;6.962;2023-04-25T11:43:47;12.30;79.80
5899;DHT22;2975;50.956;6.962;2023-04-25T11:46:14;12.50;78.60
5899;DHT22;2975;50.956;6.962;2023-04-25T11:48:41;12.80;78.30
5899;DHT22;2975;50.956;6.962;2023-04-25T11:51:07;12.60;77.90
5899;DHT22;2975;50.956;6.962;2023-04-25T11:53:33;12.60;77.50
5899;DHT22;2975;50.956;6.962;2023-04-25T11:55:59;12.90;77.60
5899;DHT22;2975;50.956;6.962;2023-04-25T11:58:25;13.00;76.90
5899;DHT22;2975;50.956;6.962;2023-04-25T12:00:51;12.50;77.70
5899;DHT22;2975;50.956;6.962;2023-04-25T12:03:18;12.50;77.70
5899;DHT22;2975;50.956;6.962;2023-04-25T12:05:45;12.40;77.00
5899;DHT22;2975;50.956;6.962;2023-04-25T12:08:15;12.30;72.30
5899;DHT22;2975;50.956;6.962;2023-04-25T12:10:42;12.00;72.30
5899;DHT22;2975;50.956;6.962;2023-04-25T12:13:19;12.00;73.70
5899;DHT22;2975;50.956;6.962;2023-04-25T12:15:45;12.30;73.20
5899;DHT22;2975;50.956;6.962;2023-04-25T12:18:11;12.10;69.00
5899;DHT22;2975;50.956;6.962;2023-04-25T12:20:36;12.00;70.70
5899;DHT22;2975;50.956;6.962;2023-04-25T12:23:05;12.50;71.90
5899;DHT22;2975;50.956;6.962;2023-04-25T12:25:43;12.70;69.80
5899;DHT22;2975;50.956;6.962;2023-04-25T12:28:22;12.90;66.60
5899;DHT22;2975;50.956;6.962;2023-04-25T12:31:02;12.90;69.00
5899;DHT22;2975;50.956;6.962;2023-04-25T12:33:33;12.70;67.20
5899;DHT22;2975;50.956;6.962;2023-04-25T12:36:00;12.40;68.40
5899;DHT22;2975;50.956;6.962;2023-04-25T12:38:30;12.50;68.90
5899;DHT22;2975;50.956;6.962;2023-04-25T12:40:57;12.40;67.50
5899;DHT22;2975;50.956;6.962;2023-04-25T12:43:24;12.30;68.60
5899;DHT22;2975;50.956;6.962;2023-04-25T12:45:51;12.20;68.70
5899;DHT22;2975;50.956;6.962;2023-04-25T12:48:17;12.40;69.80
5899;DHT22;2975;50.956;6.962;2023-04-25T12:50:43;12.40;69.70
5899;DHT22;2975;50.956;6.962;2023-04-25T12:53:09;12.50;69.20
5899;DHT22;2975;50.956;6.962;2023-04-25T12:55:35;12.50;69.30
5899;DHT22;2975;50.956;6.962;2023-04-25T12:58:00;12.40;70.70
5899;DHT22;2975;50.956;6.962;2023-04-25T13:00:26;12.20;70.70
5899;DHT22;2975;50.956;6.962;2023-04-25T13:02:52;11.90;71.60
5899;DHT22;2975;50.956;6.962;2023-04-25T13:05:17;11.80;73.80
5899;DHT22;2975;50.956;6.962;2023-04-25T13:07:43;12.10;73.00
5899;DHT22;2975;50.956;6.962;2023-04-25T13:10:09;12.20;72.80
5899;DHT22;2975;50.956;6.962;2023-04-25T13:12:34;12.20;73.20
5899;DHT22;2975;50.956;6.962;2023-04-25T13:15:00;12.50;72.70
5899;DHT22;2975;50.956;6.962;2023-04-25T13:17:26;12.40;68.40
5899;DHT22;2975;50.956;6.962;2023-04-25T13:19:52;12.30;65.10
5899;DHT22;2975;50.956;6.962;2023-04-25T13:22:18;12.10;64.50
5899;DHT22;2975;50.956;6.962;2023-04-25T13:24:45;12.10;66.20
5899;DHT22;2975;50.956;6.962;2023-04-25T13:27:11;12.00;67.90
5899;DHT22;2975;50.956;6.962;2023-04-25T13:29:36;11.80;67.00
5899;DHT22;2975;50.956;6.962;2023-04-25T13:32:04;11.90;67.20
5899;DHT22;2975;50.956;6.962;2023-04-25T13:34:30;12.10;68.40
5899;DHT22;2975;50.956;6.962;2023-04-25T13:36:56;12.40;69.00
5899;DHT22;2975;50.956;6.962;2023-04-25T13:39:21;12.30;66.00
5899;DHT22;2975;50.956;6.962;2023-04-25T13:41:47;12.10;65.40
5899;DHT22;2975;50.956;6.962;2023-04-25T13:44:12;11.70;65.40
5899;DHT22;2975;50.956;6.962;2023-04-25T13:46:38;11.60;66.60
5899;DHT22;2975;50.956;6.962;2023-04-25T13:49:04;11.60;64.80
5899;DHT22;2975;50.956;6.962;2023-04-25T13:51:30;11.70;64.30
5899;DHT22;2975;50.956;6.962;2023-04-25T13:53:56;11.90;65.20
5899;DHT22;2975;50.956;6.962;2023-04-25T13:56:22;12.20;65.30
5899;DHT22;2975;50.956;6.962;2023-04-25T13:58:49;12.30;65.50
5899;DHT22;2975;50.956;6.962;2023-04-25T14:01:15;12.60;64.50
5899;DHT22;2975;50.956;6.962;2023-04-25T14:03:41;12.90;62.10
5899;DHT22;2975;50.956;6.962;2023-04-25T14:06:07;12.90;60.70
5899;DHT22;2975;50.956;6.962;2023-04-25T14:08:34;12.70;62.60
5899;DHT22;2975;50.956;6.962;2023-04-25T14:10:59;12.90;63.80
5899;DHT22;2975;50.956;6.962;2023-04-25T14:13:26;12.80;63.90
5899;DHT22;2975;50.956;6.962;2023-04-25T14:15:52;12.90;65.70
5899;DHT22;2975;50.956;6.962;2023-04-25T14:18:18;13.40;64.70
5899;DHT22;2975;50.956;6.962;2023-04-25T14:20:44;13.40;63.20
5899;DHT22;2975;50.956;6.962;2023-04-25T14:23:10;13.20;63.80
5899;DHT22;2975;50.956;6.962;2023-04-25T14:25:36;13.30;67.30
5899;DHT22;2975;50.956;6.962;2023-04-25T14:28:02;13.30;71.30
5899;DHT22;2975;50.956;6.962;2023-04-25T14:30:27;13.20;72.10
5899;DHT22;2975;50.956;6.962;2023-04-25T14:32:54;12.90;72.90
5899;DHT22;2975;50.956;6.962;2023-04-25T14:35:19;12.60;73.70
5899;DHT22;2975;50.956;6.962;2023-04-25T14:37:46;12.50;73.90
5899;DHT22;2975;50.956;6.962;2023-04-25T14:40:12;12.60;75.40
5899;DHT22;2975;50.956;6.962;2023-04-25T14:42:40;12.60;65.90
5899;DHT22;2975;50.956;6.962;2023-04-25T14:45:07;12.60;62.10
5899;DHT22;2975;50.956;6.962;2023-04-25T14:47:33;12.50;60.30
5899;DHT22;2975;50.956;6.962;2023-04-25T14:49:58;12.30;63.40
5899;DHT22;2975;50.956;6.962;2023-04-25T14:52:24;12.20;64.90
5899;DHT22;2975;50.956;6.962;2023-04-25T14:54:51;12.00;66.30
5899;DHT22;2975;50.956;6.962;2023-04-25T14:57:16;11.80;67.60
5899;DHT22;2975;50.956;6.962;2023-04-25T14:59:42;11.70;68.70
5899;DHT22;2975;50.956;6.962;2023-04-25T15:02:07;11.80;68.80
5899;DHT22;2975;50.956;6.962;2023-04-25T15:04:33;11.80;69.00
5899;DHT22;2975;50.956;6.962;2023-04-25T15:06:59;11.60;70.40
5899;DHT22;2975;50.956;6.962;2023-04-25T15:09:24;11.70;71.10
5899;DHT22;2975;50.956;6.962;2023-04-25T15:11:51;11.50;69.70
5899;DHT22;2975;50.956;6.962;2023-04-25T15:14:17;11.40;69.70
5899;DHT22;2975;50.956;6.962;2023-04-25T15:16:43;11.40;67.70
5899;DHT22;2975;50.956;6.962;2023-04-25T15:19:08;11.60;68.20
5899;DHT22;2975;50.956;6.962;2023-04-25T15:21:34;11.60;68.00
5899;DHT22;2975;50.956;6.962;2023-04-25T15:24:00;11.50;68.30
5899;DHT22;2975;50.956;6.962;2023-04-25T15:26:26;11.50;68.60
5899;DHT22;2975;50.956;6.962;2023-04-25T15:28:52;11.70;69.80
5899;DHT22;2975;50.956;6.962;2023-04-25T15:31:18;11.60;68.80
5899;DHT22;2975;50.956;6.962;2023-04-25T15:33:43;11.60;66.40
5899;DHT22;2975;50.956;6.962;2023-04-25T15:36:09;11.50;65.40
5899;DHT22;2975;50.956;6.962;2023-04-25T15:38:35;11.40;67.00
5899;DHT22;2975;50.956;6.962;2023-04-25T15:41:01;11.40;68.40
5899;DHT22;2975;50.956;6.962;2023-04-25T15:43:27;11.70;69.60
5899;DHT22;2975;50.956;6.962;2023-04-25T15:45:52;11.60;68.50
5899;DHT22;2975;50.956;6.962;2023-04-25T15:48:18;11.70;69.00
5899;DHT22;2975;50.956;6.962;2023-04-25T15:50:43;11.70;69.80
5899;DHT22;2975;50.956;6.962;2023-04-25T15:53:09;11.70;70.60
5899;DHT22;2975;50.956;6.962;2023-04-25T15:55:35;11.80;71.80
5899;DHT22;2975;50.956;6.962;2023-04-25T15:58:01;11.90;72.60
5899;DHT22;2975;50.956;6.962;2023-04-25T16:00:26;12.00;73.70
5899;DHT22;2975;50.956;6.962;2023-04-25T16:02:52;11.80;73.00
5899;DHT22;2975;50.956;6.962;2023-04-25T16:05:18;11.60;72.70
5899;DHT22;2975;50.956;6.962;2023-04-25T16:07:45;11.30;73.50
5899;DHT22;2975;50.956;6.962;2023-04-25T16:10:12;11.30;74.40